KSLB/SLB METAR and TAF weather

Enter ICAO airport designator
Station Type Date Time Source
KSLB METAR 2020/11/28 20:35 UTC NOAA

KSLB 282035Z AUTO 24012KT 10SM CLR 10/00 A2993 RMK AO2


Station Type Date Time Source
KSLB Decoded METAR 2020/11/28 20:35 UTC NOAA

Storm Lake, IA, United States (KSLB) 42-36N 095-14W
Nov 28, 2020 - 03:35 PM EST / 2020.11.28 2035 UTC
Wind: from the WSW (240 degrees) at 14 MPH (12 KT):0
Visibility: 10 mile(s):0
Sky conditions: clear
Temperature: 50 F (10 C)
Dew Point: 32 F (0 C)
Relative Humidity: 49%
Pressure (altimeter): 29.93 in. Hg (1013 hPa)
ob: KSLB 282035Z AUTO 24012KT 10SM CLR 10/00 A2993 RMK AO2
cycle: 20

Station Type Date Time Source
KSLB TAF UTC NOAA

Error!

Example: see airport list